Time;durP1;ratioP1;P1;durP2;ratioP2;P2;SDS_P1;SDS_P2;PMS_P1;PMS_P2;Temp;Humidity;BMP_temperature;BMP_pressure;BME280_temperature;BME280_humidity;BME280_pressure;Samples;Min_cycle;Max_cycle;Signal;HPM_P1;HPM_P2
2023/08/08 00:00:51;;;;;;;3.42;1.13;;;;;;;;;;5017303;28;20045;-74
2023/08/08 00:03:17;;;;;;;4.07;1.00;;;;;;;;;;5017274;28;20054;-74
2023/08/08 00:05:44;;;;;;;2.83;0.70;;;;;;;;;;5017149;28;20045;-75
2023/08/08 00:08:11;;;;;;;1.40;0.60;;;;;;;;;;5017176;28;20146;-74
2023/08/08 00:10:37;;;;;;;1.73;0.68;;;;;;;;;;5016944;28;20116;-74
2023/08/08 00:13:04;;;;;;;2.47;0.95;;;;;;;;;;5017207;28;20037;-74
2023/08/08 00:15:31;;;;;;;1.27;0.70;;;;;;;;;;5017152;28;20096;-74
2023/08/08 00:17:57;;;;;;;2.35;0.98;;;;;;;;;;5016807;28;20045;-74
2023/08/08 00:20:24;;;;;;;1.50;0.75;;;;;;;;;;5016756;28;20493;-75
2023/08/08 00:22:50;;;;;;;2.53;0.80;;;;;;;;;;5017156;28;20042;-74
2023/08/08 00:25:17;;;;;;;3.20;0.80;;;;;;;;;;5016973;28;20048;-75
2023/08/08 00:27:43;;;;;;;2.50;0.40;;;;;;;;;;5016984;28;20056;-74
2023/08/08 00:30:13;;;;;;;3.00;1.15;;;20.90;70.60;;;;;;5016709;28;20508;-74
2023/08/08 00:32:40;;;;;;;1.27;0.73;;;;;;;;;;5000871;28;20049;-74
2023/08/08 00:35:07;;;;;;;2.30;0.88;;;;;;;;;;5016920;28;20396;-74
2023/08/08 00:37:33;;;;;;;1.42;0.70;;;;;;;;;;5016924;28;20168;-75
2023/08/08 00:40:00;;;;;;;1.88;0.95;;;;;;;;;;5016642;28;20045;-74
2023/08/08 00:42:26;;;;;;;2.55;0.98;;;;;;;;;;5012645;28;20042;-74
2023/08/08 00:44:53;;;;;;;1.05;0.52;;;;;;;;;;5013867;28;20534;-75
2023/08/08 00:47:19;;;;;;;2.35;0.90;;;;;;;;;;5013576;28;20076;-74
2023/08/08 00:49:48;;;;;;;2.03;0.73;;;;;;;;;;5013511;28;20038;-74
2023/08/08 00:52:15;;;;;;;1.77;0.80;;;;;;;;;;5013667;28;20061;-74
2023/08/08 00:54:41;;;;;;;1.88;0.68;;;;;;;;;;5013665;28;20485;-74
2023/08/08 00:57:08;;;;;;;1.65;0.80;;;;;;;;;;5013508;28;20136;-74
2023/08/08 00:59:34;;;;;;;1.63;0.68;;;;;;;;;;5013378;28;20057;-74
2023/08/08 01:02:01;;;;;;;2.17;0.70;;;;;;;;;;5013620;28;20081;-74
2023/08/08 01:04:27;;;;;;;2.90;0.82;;;;;;;;;;5013480;28;20511;-74
2023/08/08 01:07:25;;;;;;;1.63;0.82;;;20.90;65.70;;;;;;5013347;28;20046;-75
2023/08/08 01:09:51;;;;;;;1.88;0.95;;;;;;;;;;5014686;28;20038;-75
2023/08/08 01:12:18;;;;;;;3.70;1.10;;;;;;;;;;5014558;28;20033;-70
2023/08/08 01:14:45;;;;;;;2.95;0.98;;;;;;;;;;5013303;28;20105;-70
2023/08/08 01:17:13;;;;;;;2.30;1.00;;;20.80;70.20;;;;;;5012964;28;20046;-70
2023/08/08 01:19:39;;;;;;;3.53;0.80;;;;;;;;;;4996792;28;20038;-70
2023/08/08 01:22:14;;;;;;;2.67;0.90;;;20.80;70.10;;;;;;5012730;28;20129;-70
2023/08/08 01:24:43;;;;;;;1.65;0.70;;;20.80;68.70;;;;;;4997694;28;20038;-70
2023/08/08 01:27:11;;;;;;;2.10;0.70;;;;;;;;;;4996779;28;20081;-70
2023/08/08 01:29:39;;;;;;;2.42;0.55;;;;;;;;;;5013479;28;20061;-70
2023/08/08 01:32:05;;;;;;;2.38;0.70;;;;;;;;;;5012989;28;20053;-70
2023/08/08 01:34:32;;;;;;;2.33;1.05;;;;;;;;;;5012839;28;20396;-70
2023/08/08 01:37:09;;;;;;;2.55;0.82;;;20.70;70.60;;;;;;5014005;28;20050;-70
2023/08/08 01:39:35;;;;;;;4.18;2.45;;;;;;;;;;4997153;28;20041;-70
2023/08/08 01:42:02;;;;;;;3.72;0.82;;;;;;;;;;5012772;28;20042;-70
2023/08/08 01:44:29;;;;;;;3.03;0.90;;;20.80;69.40;;;;;;5012624;28;20042;-70
2023/08/08 01:46:56;;;;;;;2.90;0.68;;;;;;;;;;4996410;28;20038;-70
2023/08/08 01:49:22;;;;;;;2.40;0.57;;;;;;;;;;5012307;28;20034;-70
2023/08/08 01:51:50;;;;;;;1.70;0.70;;;;;;;;;;5012148;28;20042;-70
2023/08/08 01:54:17;;;;;;;2.50;0.77;;;;;;;;;;5012539;28;20400;-70
2023/08/08 01:56:43;;;;;;;1.77;0.60;;;;;;;;;;5012484;28;20038;-70
2023/08/08 01:59:10;;;;;;;2.03;0.80;;;;;;;;;;5012733;28;20488;-70
2023/08/08 02:01:36;;;;;;;1.15;0.63;;;;;;;;;;5012027;28;20404;-70
2023/08/08 02:04:03;;;;;;;1.45;0.70;;;;;;;;;;5012423;28;20159;-70
2023/08/08 02:06:29;;;;;;;1.65;0.65;;;;;;;;;;5012161;28;20054;-70
2023/08/08 02:08:56;;;;;;;1.80;0.60;;;;;;;;;;5012263;28;20034;-70
2023/08/08 02:11:22;;;;;;;2.72;1.00;;;;;;;;;;5012201;28;20048;-70
2023/08/08 02:13:49;;;;;;;2.08;0.82;;;;;;;;;;5012027;28;20042;-70
2023/08/08 02:16:15;;;;;;;4.15;0.98;;;;;;;;;;5011749;28;20070;-70
2023/08/08 02:18:42;;;;;;;2.42;0.80;;;;;;;;;;5011930;28;20072;-70
2023/08/08 02:21:09;;;;;;;4.30;1.30;;;;;;;;;;5011653;28;20042;-70
2023/08/08 02:23:35;;;;;;;2.60;0.98;;;;;;;;;;5012025;28;20048;-70
2023/08/08 02:26:02;;;;;;;1.67;0.77;;;;;;;;;;5013247;28;20065;-70
2023/08/08 02:28:28;;;;;;;1.80;1.17;;;;;;;;;;5013108;28;20079;-70
2023/08/08 02:30:55;;;;;;;2.00;0.68;;;;;;;;;;5012922;28;20069;-70
2023/08/08 02:33:21;;;;;;;4.03;1.17;;;;;;;;;;5012734;28;20037;-70
2023/08/08 02:35:48;;;;;;;1.08;0.70;;;;;;;;;;5012926;28;20042;-70
2023/08/08 02:38:14;;;;;;;2.25;0.82;;;;;;;;;;5012976;28;20034;-70
2023/08/08 02:40:41;;;;;;;2.85;1.08;;;;;;;;;;5012829;28;20033;-70
2023/08/08 02:43:09;;;;;;;1.92;0.70;;;;;;;;;;5012513;28;20049;-70
2023/08/08 02:45:35;;;;;;;2.60;1.00;;;;;;;;;;5012736;28;20117;-70
2023/08/08 02:48:01;;;;;;;1.83;0.73;;;;;;;;;;5012402;28;20109;-70
2023/08/08 02:50:27;;;;;;;0.70;0.68;;;;;;;;;;5012426;28;20037;-70
2023/08/08 02:52:53;;;;;;;2.88;0.80;;;;;;;;;;5012711;28;20045;-70
2023/08/08 02:55:19;;;;;;;1.55;0.85;;;;;;;;;;5012842;28;20132;-70
2023/08/08 02:57:46;;;;;;;1.98;0.80;;;;;;;;;;5012352;28;20038;-70
2023/08/08 03:00:12;;;;;;;1.58;0.85;;;;;;;;;;5012366;28;20033;-70
2023/08/08 03:02:38;;;;;;;1.98;0.80;;;;;;;;;;5012037;28;20049;-70
2023/08/08 03:05:05;;;;;;;2.25;1.10;;;;;;;;;;5012016;28;20117;-70
2023/08/08 03:07:32;;;;;;;2.72;0.75;;;;;;;;;;5012409;28;20397;-70
2023/08/08 03:09:58;;;;;;;2.10;1.00;;;;;;;;;;5012390;28;20034;-70
2023/08/08 03:12:25;;;;;;;3.55;1.08;;;;;;;;;;5012344;28;20562;-70
2023/08/08 03:14:51;;;;;;;3.67;1.02;;;;;;;;;;5012279;28;20038;-70
2023/08/08 03:17:18;;;;;;;3.67;0.80;;;;;;;;;;5012321;28;20477;-70
2023/08/08 03:19:44;;;;;;;3.00;0.93;;;;;;;;;;5012520;28;20053;-70
2023/08/08 03:22:11;;;;;;;1.70;0.73;;;;;;;;;;5012238;28;20037;-70
2023/08/08 03:24:37;;;;;;;1.77;0.80;;;;;;;;;;5012792;28;20124;-70
2023/08/08 03:27:04;;;;;;;1.60;0.77;;;;;;;;;;5011753;28;20150;-70
2023/08/08 03:29:30;;;;;;;2.08;0.88;;;;;;;;;;5012224;28;20112;-70
2023/08/08 03:31:57;;;;;;;2.85;0.77;;;;;;;;;;5011880;28;20498;-71
2023/08/08 03:34:23;;;;;;;2.28;0.60;;;;;;;;;;5012260;28;20038;-70
2023/08/08 03:36:50;;;;;;;1.55;0.63;;;;;;;;;;5012257;28;20104;-70
2023/08/08 03:39:16;;;;;;;1.70;0.60;;;;;;;;;;5012008;28;20038;-71
2023/08/08 03:41:43;;;;;;;1.65;0.70;;;;;;;;;;5012201;28;20034;-70
2023/08/08 03:44:09;;;;;;;1.58;0.77;;;;;;;;;;5011810;28;20497;-70
2023/08/08 03:46:36;;;;;;;1.40;0.70;;;;;;;;;;5011972;28;20046;-70
2023/08/08 03:49:03;;;;;;;2.03;0.90;;;;;;;;;;5011664;28;20034;-70
2023/08/08 03:51:29;;;;;;;1.33;0.73;;;;;;;;;;5012652;28;20112;-70
2023/08/08 03:53:57;;;;;;;1.88;0.90;;;;;;;;;;5012067;28;20042;-70
2023/08/08 03:56:23;;;;;;;1.83;0.60;;;;;;;;;;5012047;28;20042;-70
2023/08/08 03:58:50;;;;;;;1.80;0.68;;;;;;;;;;5012097;28;20496;-70
2023/08/08 04:43:21;;;;;;;1.98;0.73;;;;;;;;;;5046569;28;20545;-70
2023/08/08 04:45:47;;;;;;;2.42;0.75;;;;;;;;;;5054419;28;20053;-71
2023/08/08 04:48:13;;;;;;;1.20;0.70;;;;;;;;;;5054706;28;20116;-70
2023/08/08 04:50:41;;;;;;;1.73;0.90;;;;;;;;;;5054316;28;20083;-70
2023/08/08 04:53:07;;;;;;;1.42;0.63;;;;;;;;;;5054503;28;20442;-71
2023/08/08 04:55:33;;;;;;;0.80;0.60;;;;;;;;;;5054556;28;20168;-70
2023/08/08 04:58:00;;;;;;;0.77;0.52;;;;;;;;;;5054454;28;20415;-71
2023/08/08 05:00:27;;;;;;;1.73;0.68;;;;;;;;;;5054457;28;20041;-71
2023/08/08 05:02:54;;;;;;;0.70;0.60;;;;;;;;;;5054265;28;20131;-71
2023/08/08 05:05:20;;;;;;;1.30;0.60;;;;;;;;;;5054106;28;20045;-70
2023/08/08 05:07:46;;;;;;;1.88;0.73;;;;;;;;;;5054302;28;20032;-71
2023/08/08 05:10:13;;;;;;;1.40;0.50;;;;;;;;;;5053992;28;20037;-70
2023/08/08 05:12:40;;;;;;;1.65;0.75;;;;;;;;;;5054163;28;20041;-70
2023/08/08 05:15:07;;;;;;;0.98;0.40;;;;;;;;;;5054124;28;20112;-71
2023/08/08 05:17:33;;;;;;;0.98;0.60;;;;;;;;;;5054646;28;20449;-71
2023/08/08 05:20:00;;;;;;;2.83;0.43;;;;;;;;;;5054042;28;20033;-71
2023/08/08 05:22:27;;;;;;;0.88;0.60;;;;;;;;;;5053614;28;20056;-70
2023/08/08 05:24:53;;;;;;;1.05;0.70;;;;;;;;;;5053960;28;20037;-70
2023/08/08 05:27:19;;;;;;;1.05;0.50;;;;;;;;;;5053360;28;20049;-70
2023/08/08 05:29:46;;;;;;;0.82;0.50;;;;;;;;;;5053591;28;20037;-70
2023/08/08 05:32:12;;;;;;;0.52;0.40;;;;;;;;;;5053470;28;20487;-70
2023/08/08 05:34:39;;;;;;;1.30;0.63;;;;;;;;;;5053817;28;20114;-70
2023/08/08 05:37:05;;;;;;;0.63;0.50;;;;;;;;;;5053574;28;20037;-70
2023/08/08 05:39:32;;;;;;;1.25;0.70;;;;;;;;;;5053560;28;20100;-71
2023/08/08 05:41:58;;;;;;;0.95;0.57;;;;;;;;;;5053515;28;20124;-71
2023/08/08 05:44:25;;;;;;;0.68;0.50;;;;;;;;;;5053161;28;20045;-70
2023/08/08 05:46:51;;;;;;;0.57;0.50;;;;;;;;;;5053589;28;20041;-70
2023/08/08 05:49:17;;;;;;;0.43;0.40;;;;;;;;;;5053555;28;20033;-70
2023/08/08 05:51:44;;;;;;;1.10;0.60;;;;;;;;;;5053352;28;20029;-70
2023/08/08 05:54:11;;;;;;;1.80;0.50;;;;;;;;;;5053374;28;20504;-70
2023/08/08 05:56:38;;;;;;;1.63;0.68;;;;;;;;;;5053333;28;20036;-70
2023/08/08 05:59:04;;;;;;;0.82;0.60;;;;;;;;;;5053329;28;20037;-71
2023/08/08 06:01:32;;;;;;;1.23;0.40;;;;;;;;;;5053194;28;20049;-70
2023/08/08 06:03:59;;;;;;;1.52;0.68;;;;;;;;;;5052879;28;20036;-70
2023/08/08 06:06:26;;;;;;;1.45;0.63;;;;;;;;;;5052723;28;20049;-70
2023/08/08 06:08:53;;;;;;;1.55;0.40;;;;;;;;;;5053039;28;20108;-71
2023/08/08 06:11:21;;;;;;;0.50;0.40;;;;;;;;;;5053132;28;20037;-70
2023/08/08 06:13:48;;;;;;;0.95;0.43;;;;;;;;;;5053500;28;20379;-70
2023/08/08 06:16:15;;;;;;;0.65;0.60;;;;;;;;;;5053041;28;20056;-70
2023/08/08 06:18:41;;;;;;;0.75;0.63;;;;;;;;;;5052677;28;20545;-71
2023/08/08 06:21:07;;;;;;;0.85;0.40;;;;;;;;;;5052709;28;20452;-71
2023/08/08 06:23:33;;;;;;;1.20;0.63;;;;;;;;;;5052635;28;20116;-70
2023/08/08 06:25:59;;;;;;;0.75;0.40;;;;;;;;;;5052566;28;20124;-70
2023/08/08 06:28:25;;;;;;;1.70;0.47;;;;;;;;;;5052843;28;20060;-70
2023/08/08 06:30:51;;;;;;;0.47;0.47;;;;;;;;;;5052394;28;20037;-71
2023/08/08 06:33:18;;;;;;;1.05;0.43;;;;;;;;;;5052647;28;20059;-70
2023/08/08 06:35:44;;;;;;;1.35;0.60;;;20.10;69.00;;;;;;5052457;28;20124;-70
2023/08/08 06:38:11;;;;;;;0.60;0.50;;;;;;;;;;5052427;28;20036;-71
2023/08/08 06:40:37;;;;;;;0.70;0.40;;;;;;;;;;5051478;28;20048;-70
2023/08/08 06:43:04;;;;;;;0.60;0.47;;;;;;;;;;5052718;28;20037;-71
2023/08/08 06:45:30;;;;;;;1.35;0.60;;;;;;;;;;5052364;28;20083;-70
2023/08/08 06:47:57;;;;;;;1.13;0.70;;;;;;;;;;5052058;28;20033;-70
2023/08/08 06:50:24;;;;;;;0.77;0.50;;;;;;;;;;5052305;28;20037;-70
2023/08/08 06:52:51;;;;;;;0.73;0.32;;;;;;;;;;5052244;28;20036;-71
2023/08/08 06:55:17;;;;;;;1.00;0.60;;;;;;;;;;5052242;28;20449;-70
2023/08/08 06:57:44;;;;;;;0.50;0.40;;;;;;;;;;5051868;28;20048;-70
2023/08/08 07:00:12;;;;;;;1.35;0.40;;;;;;;;;;5052055;28;20385;-70
2023/08/08 07:02:39;;;;;;;0.50;0.30;;;;;;;;;;5052038;28;20099;-71
2023/08/08 07:05:06;;;;;;;1.02;0.45;;;;;;;;;;5052026;28;20043;-70
2023/08/08 07:07:33;;;;;;;1.10;0.40;;;;;;;;;;5051967;28;20111;-70
2023/08/08 07:09:59;;;;;;;1.30;0.40;;;;;;;;;;5051913;28;20104;-70
2023/08/08 07:12:26;;;;;;;0.20;0.20;;;;;;;;;;5052375;28;20369;-70
2023/08/08 07:14:52;;;;;;;0.25;0.20;;;;;;;;;;5051903;28;20040;-70
2023/08/08 07:17:19;;;;;;;0.88;0.40;;;;;;;;;;5051654;28;20048;-71
2023/08/08 07:19:45;;;;;;;1.88;0.30;;;;;;;;;;5051917;28;20040;-70
2023/08/08 07:22:12;;;;;;;0.60;0.30;;;;;;;;;;5051838;28;20112;-70
2023/08/08 07:24:38;;;;;;;0.50;0.40;;;;;;;;;;5051610;28;20041;-70
2023/08/08 07:27:05;;;;;;;1.33;0.50;;;;;;;;;;5051762;28;20110;-71
2023/08/08 07:29:32;;;;;;;0.60;0.32;;;;;;;;;;5051909;28;20044;-70
2023/08/08 07:31:59;;;;;;;0.52;0.38;;;;;;;;;;5051447;28;20090;-70
2023/08/08 07:34:25;;;;;;;0.30;0.20;;;;;;;;;;5051467;28;20047;-70
2023/08/08 07:36:52;;;;;;;1.27;0.40;;;;;;;;;;5051783;28;20045;-70
2023/08/08 07:39:18;;;;;;;2.08;0.60;;;;;;;;;;5051949;28;20036;-70
2023/08/08 07:41:44;;;;;;;0.57;0.50;;;;;;;;;;5051445;28;20060;-70
2023/08/08 07:44:11;;;;;;;1.77;0.40;;;;;;;;;;5051213;28;20499;-71
2023/08/08 07:46:37;;;;;;;1.00;0.47;;;;;;;;;;5051416;28;20090;-70
2023/08/08 07:49:04;;;;;;;1.13;0.45;;;;;;;;;;5051633;28;20037;-70
2023/08/08 07:51:31;;;;;;;0.30;0.30;;;;;;;;;;5054504;28;20044;-70
2023/08/08 07:53:58;;;;;;;0.63;0.30;;;20.70;70.40;;;;;;5055715;28;20407;-70
2023/08/08 07:56:25;;;;;;;0.98;0.40;;;;;;;;;;5055601;28;20419;-71
2023/08/08 07:58:51;;;;;;;0.40;0.40;;;;;;;;;;5055555;28;20059;-70
2023/08/08 08:01:18;;;;;;;0.60;0.35;;;;;;;;;;5055460;28;20465;-70
2023/08/08 08:03:45;;;;;;;0.47;0.47;;;;;;;;;;5055191;28;20044;-70
2023/08/08 08:06:11;;;;;;;0.60;0.50;;;;;;;;;;5054960;28;20051;-71
2023/08/08 08:08:38;;;;;;;0.75;0.43;;;;;;;;;;5055606;28;20567;-70
2023/08/08 08:11:04;;;;;;;1.55;0.40;;;;;;;;;;5055311;28;20124;-70
2023/08/08 08:13:31;;;;;;;0.32;0.32;;;;;;;;;;5055055;28;20116;-70
2023/08/08 08:15:58;;;;;;;0.25;0.25;;;;;;;;;;5055247;28;20128;-71
2023/08/08 08:18:24;;;;;;;0.43;0.20;;;;;;;;;;5055045;28;20479;-71
2023/08/08 08:20:50;;;;;;;1.40;0.50;;;;;;;;;;5054931;28;20372;-70
2023/08/08 08:23:17;;;;;;;0.85;0.22;;;;;;;;;;5054761;28;20482;-70
2023/08/08 08:25:43;;;;;;;0.77;0.30;;;;;;;;;;5055043;28;20071;-70
2023/08/08 08:28:10;;;;;;;0.38;0.20;;;;;;;;;;5054928;28;20061;-70
2023/08/08 08:30:36;;;;;;;1.20;0.50;;;;;;;;;;5054639;28;20033;-71
2023/08/08 08:33:04;;;;;;;0.70;0.30;;;;;;;;;;5054667;28;20033;-70
2023/08/08 08:35:30;;;;;;;0.75;0.43;;;;;;;;;;5054916;28;20037;-70
2023/08/08 08:37:57;;;;;;;1.00;0.30;;;;;;;;;;5055077;28;20056;-70
2023/08/08 08:40:24;;;;;;;0.60;0.32;;;;;;;;;;5054355;28;20037;-70
2023/08/08 08:42:50;;;;;;;2.22;0.57;;;20.70;72.50;;;;;;5054705;28;20388;-71
2023/08/08 08:45:21;;;;;;;1.02;0.30;;;20.70;72.50;;;;;;5054162;28;20418;-70
2023/08/08 08:47:48;;;;;;;0.45;0.30;;;;;;;;;;5054631;28;20041;-70
2023/08/08 08:50:16;;;;;;;2.35;0.65;;;20.70;72.70;;;;;;5054684;28;20064;-71
2023/08/08 08:52:43;;;;;;;0.77;0.30;;;20.80;72.70;;;;;;5054590;28;20033;-70
2023/08/08 08:55:10;;;;;;;0.63;0.40;;;;;;;;;;5054214;28;20040;-71
2023/08/08 08:57:37;;;;;;;0.75;0.50;;;;;;;;;;5054295;28;20037;-71
2023/08/08 09:00:05;;;;;;;0.90;0.50;;;20.80;72.50;;;;;;5054121;28;20052;-71
2023/08/08 09:02:32;;;;;;;0.47;0.30;;;;;;;;;;5053139;28;20036;-70
2023/08/08 09:05:01;;;;;;;1.50;0.40;;;20.80;73.00;;;;;;5054868;28;20102;-70
2023/08/08 09:07:31;;;;;;;1.23;0.57;;;20.90;73.00;;;;;;5054204;28;20049;-70
2023/08/08 09:09:58;;;;;;;1.15;0.32;;;;;;;;;;5052770;28;20045;-70
2023/08/08 09:12:24;;;;;;;0.45;0.40;;;20.90;71.40;;;;;;5052584;28;20136;-70
2023/08/08 09:14:57;;;;;;;0.40;0.30;;;21.00;67.30;;;;;;5036049;28;20483;-70
2023/08/08 09:17:27;;;;;;;0.43;0.30;;;21.00;67.20;;;;;;5036417;28;20041;-70
2023/08/08 09:19:55;;;;;;;1.05;0.50;;;21.00;72.40;;;;;;5054008;28;20029;-70
2023/08/08 09:22:23;;;;;;;0.70;0.40;;;;;;;;;;5052431;28;20514;-70
2023/08/08 09:24:50;;;;;;;0.60;0.30;;;;;;;;;;5053758;28;20094;-70
2023/08/08 09:27:16;;;;;;;0.57;0.40;;;;;;;;;;5053642;28;20052;-70
2023/08/08 09:29:43;;;;;;;0.93;0.40;;;;;;;;;;5053819;28;20037;-70
2023/08/08 09:32:10;;;;;;;0.60;0.35;;;;;;;;;;5053882;28;20403;-70
2023/08/08 09:34:37;;;;;;;0.57;0.50;;;;;;;;;;5054210;28;20037;-70
2023/08/08 09:37:05;;;;;;;0.80;0.50;;;;;;;;;;5053389;28;20095;-70
2023/08/08 09:39:31;;;;;;;0.38;0.30;;;;;;;;;;5053681;28;20040;-70
2023/08/08 09:41:58;;;;;;;1.27;0.50;;;;;;;;;;5053278;28;20064;-70
2023/08/08 09:44:26;;;;;;;0.52;0.35;;;;;;;;;;5053159;28;20055;-70
2023/08/08 09:46:53;;;;;;;0.82;0.43;;;;;;;;;;5053482;28;20075;-70
2023/08/08 09:49:19;;;;;;;0.20;0.20;;;;;;;;;;5053183;28;20065;-70
2023/08/08 09:51:46;;;;;;;1.77;0.50;;;;;;;;;;5053276;28;20041;-70
2023/08/08 09:54:13;;;;;;;0.47;0.40;;;;;;;;;;5053485;28;20041;-71
2023/08/08 09:56:40;;;;;;;0.30;0.30;;;21.40;71.40;;;;;;5053380;28;20108;-71
2023/08/08 09:59:07;;;;;;;0.60;0.57;;;;;;;;;;5053113;28;20033;-71
2023/08/08 10:01:33;;;;;;;1.25;0.47;;;;;;;;;;5053620;28;20116;-71
2023/08/08 10:04:00;;;;;;;1.60;0.40;;;;;;;;;;5053232;28;20407;-71
2023/08/08 10:06:27;;;;;;;0.70;0.40;;;;;;;;;;5053075;28;20114;-70
2023/08/08 10:08:53;;;;;;;0.75;0.43;;;;;;;;;;5053220;28;20037;-70
2023/08/08 10:11:22;;;;;;;0.75;0.40;;;21.60;68.60;;;;;;5053171;28;20537;-70
2023/08/08 10:13:50;;;;;;;0.65;0.35;;;21.70;62.20;;;;;;5053075;28;20419;-71
2023/08/08 10:16:18;;;;;;;1.00;0.43;;;21.50;92.60;;;;;;5053069;28;20116;-71
2023/08/08 10:18:46;;;;;;;0.65;0.35;;;21.70;71.80;;;;;;5052853;28;20163;-70
2023/08/08 10:21:12;;;;;;;0.68;0.35;;;21.80;62.70;;;;;;5052549;28;20067;-71
2023/08/08 10:23:39;;;;;;;1.55;0.77;;;21.70;93.10;;;;;;5052872;28;20037;-71
2023/08/08 10:26:18;;;;;;;1.02;0.30;;;21.80;64.70;;;;;;5052540;28;20148;-71
2023/08/08 10:28:57;;;;;;;1.15;0.32;;;20.00;64.10;;;;;;5052394;28;20036;-71
2023/08/08 10:31:23;;;;;;;1.10;0.30;;;;;;;;;;5053027;28;20036;-71
2023/08/08 10:33:49;;;;;;;0.60;0.50;;;21.90;93.80;;;;;;5052654;28;20033;-71
2023/08/08 10:36:17;;;;;;;1.00;0.50;;;;;;;;;;5052592;28;20116;-71
2023/08/08 10:38:46;;;;;;;0.90;0.50;;;22.30;93.90;;;;;;5052249;28;20558;-71
2023/08/08 10:41:15;;;;;;;1.08;0.40;;;21.70;93.80;;;;;;5052207;28;20247;-71
2023/08/08 10:43:54;;;;;;;0.52;0.40;;;21.70;93.70;;;;;;5052254;28;20048;-71
2023/08/08 10:46:31;;;;;;;1.23;0.45;;;22.40;93.90;;;;;;5052466;28;20068;-71
2023/08/08 10:49:00;;;;;;;1.65;0.40;;;22.10;64.80;;;;;;5052348;28;20044;-71
2023/08/08 10:51:37;;;;;;;1.52;0.63;;;22.20;67.90;;;;;;5052360;28;20036;-71
2023/08/08 10:54:11;;;;;;;1.48;0.55;;;22.30;64.70;;;;;;5052428;28;20036;-71
2023/08/08 10:56:38;;;;;;;0.50;0.30;;;;;;;;;;5052323;28;20080;-71
2023/08/08 10:59:15;;;;;;;0.70;0.40;;;22.10;70.70;;;;;;5052589;28;20376;-71
2023/08/08 11:01:42;;;;;;;1.30;0.40;;;;;;;;;;5052132;28;20040;-70
2023/08/08 11:04:08;;;;;;;0.85;0.30;;;22.40;83.30;;;;;;5051758;28;20049;-71
2023/08/08 11:06:34;;;;;;;0.77;0.60;;;;;;;;;;5051894;28;20041;-71
2023/08/08 11:09:05;;;;;;;0.85;0.50;;;22.70;94.00;;;;;;5052095;28;20033;-71
2023/08/08 11:11:35;;;;;;;;;;;22.50;65.50;;;;;;5052569;28;20498;-71
2023/08/08 11:14:09;;;;;;;0.30;0.28;;;22.80;65.00;;;;;;5051812;28;19923;-71
2023/08/08 11:16:36;;;;;;;1.25;0.40;;;;;;;;;;5051605;28;20056;-71
2023/08/08 11:19:03;;;;;;;0.60;0.50;;;22.70;92.60;;;;;;5051555;28;20063;-71
2023/08/08 11:21:29;;;;;;;0.85;0.30;;;23.30;93.90;;;;;;5051478;28;20025;-71
2023/08/08 11:23:56;;;;;;;0.95;0.40;;;;;;;;;;5051763;28;20042;-70
2023/08/08 11:26:23;;;;;;;0.85;0.40;;;;;;;;;;5051242;28;20102;-71
2023/08/08 11:28:53;;;;;;;0.20;0.20;;;22.80;65.00;;;;;;5052310;28;20033;-71
2023/08/08 11:31:23;;;;;;;0.47;0.30;;;23.30;70.50;;;;;;5051736;28;20095;-71
2023/08/08 11:33:49;;;;;;;0.88;0.40;;;;;;;;;;5051806;28;20025;-71
2023/08/08 11:36:16;;;;;;;0.47;0.30;;;;;;;;;;5051743;28;20371;-71
2023/08/08 11:38:43;;;;;;;1.02;0.35;;;23.00;65.50;;;;;;5051709;28;20419;-71
2023/08/08 11:41:14;;;;;;;0.30;0.30;;;23.00;65.90;;;;;;5051482;28;20057;-71
2023/08/08 11:43:41;;;;;;;1.23;0.50;;;23.00;66.00;;;;;;5051462;28;20452;-71
2023/08/08 11:46:12;;;;;;;1.77;0.77;;;23.30;92.00;;;;;;5051480;28;20406;-71
2023/08/08 11:48:39;;;;;;;0.47;0.30;;;22.90;65.40;;;;;;5051270;28;20041;-71
2023/08/08 11:51:06;;;;;;;2.15;0.77;;;;;;;;;;5051632;28;20029;-70
2023/08/08 11:53:33;;;;;;;0.77;0.30;;;23.00;94.50;;;;;;5051854;28;20104;-71
2023/08/08 11:56:00;;;;;;;0.20;0.20;;;23.00;63.60;;;;;;5052002;28;20033;-71
2023/08/08 11:58:26;;;;;;;1.00;0.50;;;;;;;;;;5051570;28;20048;-71
2023/08/08 12:00:54;;;;;;;0.40;0.25;;;;;;;;;;5051515;28;20032;-71
2023/08/08 12:03:21;;;;;;;0.70;0.70;;;23.00;63.20;;;;;;5051119;28;20041;-70
2023/08/08 12:05:47;;;;;;;0.60;0.43;;;;;;;;;;5051427;28;20039;-71
2023/08/08 12:08:18;;;;;;;1.00;0.32;;;23.00;66.70;;;;;;5051144;28;20044;-71
2023/08/08 12:10:51;;;;;;;0.47;0.40;;;23.10;66.50;;;;;;5051465;28;20507;-71
2023/08/08 12:13:25;;;;;;;0.50;0.40;;;23.50;94.80;;;;;;5051386;28;20075;-71
2023/08/08 12:15:52;;;;;;;0.70;0.50;;;23.10;66.20;;;;;;5051466;28;20122;-70
2023/08/08 12:18:19;;;;;;;0.50;0.35;;;;;;;;;;5050922;28;20029;-71
2023/08/08 12:20:46;;;;;;;0.55;0.28;;;;;;;;;;5051362;28;20083;-71
2023/08/08 12:23:14;;;;;;;2.28;0.40;;;23.40;65.00;;;;;;5051211;28;20108;-71
2023/08/08 12:25:42;;;;;;;0.45;0.40;;;23.40;65.40;;;;;;5051713;28;20433;-71
2023/08/08 12:28:09;;;;;;;0.57;0.40;;;;;;;;;;5051021;28;20112;-71
2023/08/08 12:30:35;;;;;;;0.40;0.40;;;;;;;;;;5051160;28;20037;-71
2023/08/08 12:33:02;;;;;;;0.63;0.45;;;;;;;;;;5051262;28;20037;-71
2023/08/08 12:35:28;;;;;;;1.00;0.30;;;;;;;;;;5051210;28;20033;-71
2023/08/08 12:37:55;;;;;;;0.55;0.50;;;;;;;;;;5052640;28;20578;-71
2023/08/08 12:40:21;;;;;;;0.63;0.47;;;;;;;;;;5054794;28;20041;-71
2023/08/08 12:42:48;;;;;;;1.15;0.55;;;;;;;;;;5054564;28;20521;-71
2023/08/08 12:45:14;;;;;;;0.40;0.40;;;;;;;;;;5054134;28;20111;-71
2023/08/08 12:47:40;;;;;;;0.80;0.30;;;24.60;93.40;;;;;;5054411;28;20045;-71
2023/08/08 12:50:07;;;;;;;0.43;0.40;;;;;;;;;;5054255;28;20120;-71
2023/08/08 12:52:34;;;;;;;0.60;0.45;;;;;;;;;;5055151;28;20036;-71
2023/08/08 12:55:01;;;;;;;0.63;0.47;;;;;;;;;;5054249;28;20120;-71
2023/08/08 12:57:27;;;;;;;0.25;0.25;;;;;;;;;;5054165;28;20041;-70
2023/08/08 12:59:54;;;;;;;0.30;0.22;;;;;;;;;;5054504;28;20049;-71
2023/08/08 13:02:20;;;;;;;0.47;0.30;;;24.40;92.90;;;;;;5054285;28;20072;-71
2023/08/08 13:04:48;;;;;;;0.40;0.40;;;;;;;;;;5054352;28;20400;-71
2023/08/08 13:07:14;;;;;;;0.60;0.40;;;;;;;;;;5054224;28;20041;-71
2023/08/08 13:09:41;;;;;;;0.30;0.30;;;;;;;;;;5054238;28;20446;-71
2023/08/08 13:12:07;;;;;;;0.30;0.30;;;;;;;;;;5053922;28;20052;-71
2023/08/08 13:14:33;;;;;;;1.13;0.57;;;;;;;;;;5052722;28;20119;-71
2023/08/08 13:16:59;;;;;;;1.17;0.40;;;;;;;;;;5053909;28;20451;-71
2023/08/08 13:19:25;;;;;;;0.40;0.40;;;;;;;;;;5053801;28;20123;-71
2023/08/08 13:21:52;;;;;;;1.02;0.35;;;24.90;61.80;;;;;;5054319;28;20041;-71
2023/08/08 13:24:18;;;;;;;0.70;0.40;;;;;;;;;;5053824;28;20040;-71
2023/08/08 13:26:44;;;;;;;0.47;0.25;;;;;;;;;;5053692;28;20045;-71
2023/08/08 13:29:12;;;;;;;0.47;0.28;;;24.70;63.20;;;;;;5053752;28;20060;-71
2023/08/08 13:31:38;;;;;;;0.85;0.30;;;;;;;;;;5053621;28;20048;-71
2023/08/08 13:34:04;;;;;;;0.63;0.40;;;;;;;;;;5053667;28;20033;-71
2023/08/08 13:36:30;;;;;;;0.55;0.20;;;;;;;;;;5053834;28;20033;-71
2023/08/08 13:38:57;;;;;;;0.30;0.30;;;;;;;;;;5053442;28;20033;-71
2023/08/08 13:41:23;;;;;;;1.45;0.47;;;24.90;93.70;;;;;;5053372;28;20502;-71
2023/08/08 13:43:49;;;;;;;0.65;0.32;;;;;;;;;;5053284;28;20052;-71
2023/08/08 13:46:15;;;;;;;0.52;0.40;;;;;;;;;;5053474;28;20183;-71
2023/08/08 13:48:41;;;;;;;0.50;0.30;;;;;;;;;;5053176;28;20087;-71
2023/08/08 13:51:07;;;;;;;0.40;0.40;;;;;;;;;;5053678;28;20037;-71
2023/08/08 13:53:34;;;;;;;0.75;0.50;;;;;;;;;;5053223;28;20039;-71
2023/08/08 13:56:00;;;;;;;0.93;0.50;;;25.10;93.60;;;;;;5053207;28;20503;-71
2023/08/08 13:58:26;;;;;;;0.63;0.30;;;;;;;;;;5053180;28;20069;-71
2023/08/08 14:00:52;;;;;;;0.40;0.30;;;;;;;;;;5053156;28;20568;-71
2023/08/08 14:03:18;;;;;;;0.50;0.30;;;24.80;62.50;;;;;;5052912;28;20037;-71
2023/08/08 14:05:44;;;;;;;0.40;0.30;;;;;;;;;;5052848;28;20029;-71
2023/08/08 14:08:11;;;;;;;0.77;0.40;;;;;;;;;;5053025;28;20069;-71
2023/08/08 14:10:37;;;;;;;0.50;0.30;;;;;;;;;;5052818;28;20049;-71
2023/08/08 14:13:03;;;;;;;0.50;0.38;;;25.30;93.50;;;;;;5052892;28;20037;-71
2023/08/08 14:15:29;;;;;;;0.60;0.40;;;;;;;;;;5052738;28;20376;-71
2023/08/08 14:18:00;;;;;;;0.95;0.30;;;24.80;58.30;;;;;;5052775;28;20052;-71
2023/08/08 14:20:27;;;;;;;1.00;0.30;;;;;;;;;;5052632;28;20071;-71
2023/08/08 14:22:53;;;;;;;0.80;0.30;;;;;;;;;;5052639;28;20522;-71
2023/08/08 14:25:20;;;;;;;0.43;0.40;;;;;;;;;;5052924;28;20459;-71
2023/08/08 14:27:47;;;;;;;0.80;0.40;;;;;;;;;;5052750;28;20156;-71
2023/08/08 14:30:13;;;;;;;1.85;0.50;;;;;;;;;;5052570;28;20037;-71
2023/08/08 14:32:40;;;;;;;0.40;0.30;;;;;;;;;;5052685;28;20102;-71
2023/08/08 14:35:08;;;;;;;0.60;0.30;;;24.20;67.70;;;;;;5052391;28;20029;-71
2023/08/08 14:37:35;;;;;;;0.20;0.20;;;24.30;65.40;;;;;;5052450;28;20033;-71
2023/08/08 14:40:02;;;;;;;0.77;0.20;;;;;;;;;;5052285;28;20033;-71
2023/08/08 14:42:29;;;;;;;0.43;0.30;;;;;;;;;;5052252;28;20045;-71
2023/08/08 14:44:55;;;;;;;0.30;0.30;;;;;;;;;;5052004;28;20080;-71
2023/08/08 14:47:22;;;;;;;0.75;0.40;;;;;;;;;;5052638;28;20519;-71
2023/08/08 14:49:50;;;;;;;0.68;0.47;;;;;;;;;;5052311;28;20357;-71
2023/08/08 14:52:17;;;;;;;0.57;0.40;;;;;;;;;;5052110;28;20037;-71
2023/08/08 14:54:44;;;;;;;0.82;0.20;;;;;;;;;;5052319;28;20399;-71
2023/08/08 14:57:10;;;;;;;0.95;0.40;;;;;;;;;;5052315;28;20036;-71